sensor_id;sensor_type;location;lat;lon;timestamp;temperature;humidity
20504;DHT22;10410;51.046;6.980;2023-10-31T00:01:18;12.00;99.90
20504;DHT22;10410;51.046;6.980;2023-10-31T00:08:20;11.90;99.90
20504;DHT22;10410;51.046;6.980;2023-10-31T00:15:20;11.80;99.90
20504;DHT22;10410;51.046;6.980;2023-10-31T00:22:21;11.70;99.90
20504;DHT22;10410;51.046;6.980;2023-10-31T00:29:22;11.70;99.90
20504;DHT22;10410;51.046;6.980;2023-10-31T00:36:22;11.60;99.90
20504;DHT22;10410;51.046;6.980;2023-10-31T00:43:23;11.60;99.90
20504;DHT22;10410;51.046;6.980;2023-10-31T00:50:23;11.60;99.90
20504;DHT22;10410;51.046;6.980;2023-10-31T00:57:24;11.60;99.90
20504;DHT22;10410;51.046;6.980;2023-10-31T01:04:24;11.60;99.90
20504;DHT22;10410;51.046;6.980;2023-10-31T01:11:26;11.60;99.90
20504;DHT22;10410;51.046;6.980;2023-10-31T01:18:26;11.50;99.90
20504;DHT22;10410;51.046;6.980;2023-10-31T01:25:27;11.40;99.90
20504;DHT22;10410;51.046;6.980;2023-10-31T01:32:28;11.40;99.90
20504;DHT22;10410;51.046;6.980;2023-10-31T01:39:28;11.30;99.90
20504;DHT22;10410;51.046;6.980;2023-10-31T01:46:29;11.30;99.90
20504;DHT22;10410;51.046;6.980;2023-10-31T01:53:32;11.20;99.90
20504;DHT22;10410;51.046;6.980;2023-10-31T02:00:33;11.20;99.90
20504;DHT22;10410;51.046;6.980;2023-10-31T02:07:34;11.20;99.90
20504;DHT22;10410;51.046;6.980;2023-10-31T02:14:34;11.20;99.90
20504;DHT22;10410;51.046;6.980;2023-10-31T02:21:39;11.20;99.90
20504;DHT22;10410;51.046;6.980;2023-10-31T02:28:39;11.20;99.90
20504;DHT22;10410;51.046;6.980;2023-10-31T02:35:40;11.20;99.90
20504;DHT22;10410;51.046;6.980;2023-10-31T02:42:41;11.10;99.90
20504;DHT22;10410;51.046;6.980;2023-10-31T02:49:41;11.10;99.90
20504;DHT22;10410;51.046;6.980;2023-10-31T02:56:42;11.10;99.90
20504;DHT22;10410;51.046;6.980;2023-10-31T03:03:42;11.10;99.90
20504;DHT22;10410;51.046;6.980;2023-10-31T03:10:43;11.10;99.90
20504;DHT22;10410;51.046;6.980;2023-10-31T03:17:43;11.10;99.90
20504;DHT22;10410;51.046;6.980;2023-10-31T03:24:44;11.00;99.90
20504;DHT22;10410;51.046;6.980;2023-10-31T03:31:44;11.10;99.90
20504;DHT22;10410;51.046;6.980;2023-10-31T03:38:45;11.10;99.90
20504;DHT22;10410;51.046;6.980;2023-10-31T03:45:49;11.10;99.90
20504;DHT22;10410;51.046;6.980;2023-10-31T03:52:49;11.10;99.90
20504;DHT22;10410;51.046;6.980;2023-10-31T03:59:49;11.00;99.90
20504;DHT22;10410;51.046;6.980;2023-10-31T04:06:50;11.00;99.90
20504;DHT22;10410;51.046;6.980;2023-10-31T04:13:51;11.00;99.90
20504;DHT22;10410;51.046;6.980;2023-10-31T04:20:51;11.00;99.90
20504;DHT22;10410;51.046;6.980;2023-10-31T04:27:52;11.00;99.90
20504;DHT22;10410;51.046;6.980;2023-10-31T04:34:52;11.00;99.90
20504;DHT22;10410;51.046;6.980;2023-10-31T04:41:53;11.00;99.90
20504;DHT22;10410;51.046;6.980;2023-10-31T04:48:53;11.00;99.90
20504;DHT22;10410;51.046;6.980;2023-10-31T04:55:54;11.00;99.90
20504;DHT22;10410;51.046;6.980;2023-10-31T05:02:54;11.10;99.90
20504;DHT22;10410;51.046;6.980;2023-10-31T05:09:56;11.10;99.90
20504;DHT22;10410;51.046;6.980;2023-10-31T05:16:56;11.20;99.90
20504;DHT22;10410;51.046;6.980;2023-10-31T05:23:57;11.20;99.90
20504;DHT22;10410;51.046;6.980;2023-10-31T05:30:58;11.20;99.90
20504;DHT22;10410;51.046;6.980;2023-10-31T05:37:58;11.20;99.90
20504;DHT22;10410;51.046;6.980;2023-10-31T05:44:59;11.20;99.90
20504;DHT22;10410;51.046;6.980;2023-10-31T05:51:59;11.20;99.90
20504;DHT22;10410;51.046;6.980;2023-10-31T05:59:00;11.20;99.90
20504;DHT22;10410;51.046;6.980;2023-10-31T06:06:00;11.20;99.90
20504;DHT22;10410;51.046;6.980;2023-10-31T06:13:01;11.10;99.90
20504;DHT22;10410;51.046;6.980;2023-10-31T06:20:02;11.20;99.90
20504;DHT22;10410;51.046;6.980;2023-10-31T06:27:03;11.30;99.90
20504;DHT22;10410;51.046;6.980;2023-10-31T06:34:03;11.30;99.90
20504;DHT22;10410;51.046;6.980;2023-10-31T06:41:04;11.20;99.90
20504;DHT22;10410;51.046;6.980;2023-10-31T06:48:05;11.10;99.90
20504;DHT22;10410;51.046;6.980;2023-10-31T06:55:07;11.10;99.90
20504;DHT22;10410;51.046;6.980;2023-10-31T07:02:08;11.10;99.90
20504;DHT22;10410;51.046;6.980;2023-10-31T07:09:09;11.00;99.90
20504;DHT22;10410;51.046;6.980;2023-10-31T07:16:09;11.00;99.90
20504;DHT22;10410;51.046;6.980;2023-10-31T07:23:10;11.00;99.90
20504;DHT22;10410;51.046;6.980;2023-10-31T07:30:11;10.90;99.90
20504;DHT22;10410;51.046;6.980;2023-10-31T07:37:11;10.80;99.90
20504;DHT22;10410;51.046;6.980;2023-10-31T07:44:12;10.70;99.90
20504;DHT22;10410;51.046;6.980;2023-10-31T07:51:12;10.70;99.90
20504;DHT22;10410;51.046;6.980;2023-10-31T07:58:13;10.70;99.90
20504;DHT22;10410;51.046;6.980;2023-10-31T08:05:14;10.80;99.90
20504;DHT22;10410;51.046;6.980;2023-10-31T08:12:14;10.80;99.90
20504;DHT22;10410;51.046;6.980;2023-10-31T08:19:15;11.00;99.90
20504;DHT22;10410;51.046;6.980;2023-10-31T08:26:15;11.10;99.90
20504;DHT22;10410;51.046;6.980;2023-10-31T08:33:16;11.30;99.90
20504;DHT22;10410;51.046;6.980;2023-10-31T08:40:16;11.30;99.90
20504;DHT22;10410;51.046;6.980;2023-10-31T08:47:17;11.40;99.90
20504;DHT22;10410;51.046;6.980;2023-10-31T08:54:18;11.40;99.90
20504;DHT22;10410;51.046;6.980;2023-10-31T09:01:19;11.50;99.90
20504;DHT22;10410;51.046;6.980;2023-10-31T09:08:20;11.60;99.90
20504;DHT22;10410;51.046;6.980;2023-10-31T09:15:20;11.70;99.90
20504;DHT22;10410;51.046;6.980;2023-10-31T09:22:21;11.90;99.90
20504;DHT22;10410;51.046;6.980;2023-10-31T09:29:22;11.90;99.90
20504;DHT22;10410;51.046;6.980;2023-10-31T09:36:32;11.90;99.90
20504;DHT22;10410;51.046;6.980;2023-10-31T09:43:35;12.00;99.90
20504;DHT22;10410;51.046;6.980;2023-10-31T09:50:36;12.10;99.90
20504;DHT22;10410;51.046;6.980;2023-10-31T09:57:37;12.30;99.90
20504;DHT22;10410;51.046;6.980;2023-10-31T10:04:38;12.40;99.90
20504;DHT22;10410;51.046;6.980;2023-10-31T10:11:39;12.50;99.90
20504;DHT22;10410;51.046;6.980;2023-10-31T10:18:39;12.50;99.90
20504;DHT22;10410;51.046;6.980;2023-10-31T10:25:42;12.70;99.90
20504;DHT22;10410;51.046;6.980;2023-10-31T10:32:43;12.80;99.90
20504;DHT22;10410;51.046;6.980;2023-10-31T10:39:47;13.00;99.90
20504;DHT22;10410;51.046;6.980;2023-10-31T10:46:50;13.00;99.90
20504;DHT22;10410;51.046;6.980;2023-10-31T10:54:05;13.20;99.90
20504;DHT22;10410;51.046;6.980;2023-10-31T11:01:10;13.30;99.90
20504;DHT22;10410;51.046;6.980;2023-10-31T11:08:11;13.20;99.90
20504;DHT22;10410;51.046;6.980;2023-10-31T11:15:14;13.30;99.90
20504;DHT22;10410;51.046;6.980;2023-10-31T11:22:17;13.30;99.90
20504;DHT22;10410;51.046;6.980;2023-10-31T11:29:18;13.30;99.90
20504;DHT22;10410;51.046;6.980;2023-10-31T11:36:19;13.30;99.90
20504;DHT22;10410;51.046;6.980;2023-10-31T11:43:20;13.30;99.90
20504;DHT22;10410;51.046;6.980;2023-10-31T11:50:21;13.40;99.90
20504;DHT22;10410;51.046;6.980;2023-10-31T11:57:28;13.30;99.90
20504;DHT22;10410;51.046;6.980;2023-10-31T12:04:29;13.40;99.90
20504;DHT22;10410;51.046;6.980;2023-10-31T12:11:29;13.50;99.90
20504;DHT22;10410;51.046;6.980;2023-10-31T12:18:30;13.60;99.90
20504;DHT22;10410;51.046;6.980;2023-10-31T12:25:30;13.70;99.90
20504;DHT22;10410;51.046;6.980;2023-10-31T12:32:36;13.70;99.90
20504;DHT22;10410;51.046;6.980;2023-10-31T12:39:37;13.70;99.90
20504;DHT22;10410;51.046;6.980;2023-10-31T12:46:41;13.80;99.90
20504;DHT22;10410;51.046;6.980;2023-10-31T12:53:47;13.90;99.90
20504;DHT22;10410;51.046;6.980;2023-10-31T13:00:48;14.00;99.90
20504;DHT22;10410;51.046;6.980;2023-10-31T13:07:49;14.10;99.90
20504;DHT22;10410;51.046;6.980;2023-10-31T13:14:49;14.40;99.90
20504;DHT22;10410;51.046;6.980;2023-10-31T13:21:50;14.80;99.90
20504;DHT22;10410;51.046;6.980;2023-10-31T13:28:51;15.00;99.90
20504;DHT22;10410;51.046;6.980;2023-10-31T13:35:52;15.10;99.90
20504;DHT22;10410;51.046;6.980;2023-10-31T13:42:53;15.40;99.90
20504;DHT22;10410;51.046;6.980;2023-10-31T13:49:54;15.70;99.90
20504;DHT22;10410;51.046;6.980;2023-10-31T13:56:54;15.90;99.90
20504;DHT22;10410;51.046;6.980;2023-10-31T14:03:55;16.20;99.90
20504;DHT22;10410;51.046;6.980;2023-10-31T14:10:55;16.20;99.90
20504;DHT22;10410;51.046;6.980;2023-10-31T14:17:57;16.30;99.90
20504;DHT22;10410;51.046;6.980;2023-10-31T14:24:57;16.30;99.90
20504;DHT22;10410;51.046;6.980;2023-10-31T14:32:06;16.30;99.90
20504;DHT22;10410;51.046;6.980;2023-10-31T14:39:06;16.30;99.90
20504;DHT22;10410;51.046;6.980;2023-10-31T14:46:07;16.20;99.90
20504;DHT22;10410;51.046;6.980;2023-10-31T14:55:00;16.10;99.90
20504;DHT22;10410;51.046;6.980;2023-10-31T15:02:00;15.70;99.90
20504;DHT22;10410;51.046;6.980;2023-10-31T15:09:01;15.40;99.90
20504;DHT22;10410;51.046;6.980;2023-10-31T15:16:02;15.20;99.90
20504;DHT22;10410;51.046;6.980;2023-10-31T15:23:02;15.00;99.90
20504;DHT22;10410;51.046;6.980;2023-10-31T15:30:06;14.80;99.90
20504;DHT22;10410;51.046;6.980;2023-10-31T15:37:07;14.70;99.90
20504;DHT22;10410;51.046;6.980;2023-10-31T15:44:08;14.60;99.90
20504;DHT22;10410;51.046;6.980;2023-10-31T15:51:08;14.40;99.90
20504;DHT22;10410;51.046;6.980;2023-10-31T15:58:09;14.20;99.90
20504;DHT22;10410;51.046;6.980;2023-10-31T16:05:09;14.10;99.90
20504;DHT22;10410;51.046;6.980;2023-10-31T16:12:10;14.00;99.90
20504;DHT22;10410;51.046;6.980;2023-10-31T16:19:10;13.80;99.90
20504;DHT22;10410;51.046;6.980;2023-10-31T16:26:11;13.50;99.90
20504;DHT22;10410;51.046;6.980;2023-10-31T16:33:11;13.10;99.90
20504;DHT22;10410;51.046;6.980;2023-10-31T16:40:12;12.90;99.90
20504;DHT22;10410;51.046;6.980;2023-10-31T16:47:13;12.80;99.90
20504;DHT22;10410;51.046;6.980;2023-10-31T16:54:13;12.60;99.90
20504;DHT22;10410;51.046;6.980;2023-10-31T17:01:14;12.50;99.90
20504;DHT22;10410;51.046;6.980;2023-10-31T17:08:14;12.50;99.90
20504;DHT22;10410;51.046;6.980;2023-10-31T17:15:15;12.50;99.90
20504;DHT22;10410;51.046;6.980;2023-10-31T17:22:16;12.50;99.90
20504;DHT22;10410;51.046;6.980;2023-10-31T17:29:16;12.40;99.90
20504;DHT22;10410;51.046;6.980;2023-10-31T17:36:17;12.30;99.90
20504;DHT22;10410;51.046;6.980;2023-10-31T17:43:17;12.30;99.90
20504;DHT22;10410;51.046;6.980;2023-10-31T17:50:18;12.20;99.90
20504;DHT22;10410;51.046;6.980;2023-10-31T17:57:19;12.20;99.90
20504;DHT22;10410;51.046;6.980;2023-10-31T18:04:19;12.20;99.90
20504;DHT22;10410;51.046;6.980;2023-10-31T18:11:20;12.30;99.90
20504;DHT22;10410;51.046;6.980;2023-10-31T18:18:20;12.30;99.90
20504;DHT22;10410;51.046;6.980;2023-10-31T18:25:21;12.20;99.90
20504;DHT22;10410;51.046;6.980;2023-10-31T18:32:22;12.20;99.90
20504;DHT22;10410;51.046;6.980;2023-10-31T18:39:22;12.20;99.90
20504;DHT22;10410;51.046;6.980;2023-10-31T18:46:23;12.20;99.90
20504;DHT22;10410;51.046;6.980;2023-10-31T18:53:23;12.20;99.90
20504;DHT22;10410;51.046;6.980;2023-10-31T19:00:24;12.20;99.90
20504;DHT22;10410;51.046;6.980;2023-10-31T19:07:25;12.10;99.90
20504;DHT22;10410;51.046;6.980;2023-10-31T19:14:25;12.10;99.90
20504;DHT22;10410;51.046;6.980;2023-10-31T19:21:26;12.10;99.90
20504;DHT22;10410;51.046;6.980;2023-10-31T19:28:26;12.10;99.90
20504;DHT22;10410;51.046;6.980;2023-10-31T19:35:27;12.00;99.90
20504;DHT22;10410;51.046;6.980;2023-10-31T19:42:29;12.00;99.90
20504;DHT22;10410;51.046;6.980;2023-10-31T19:49:29;12.00;99.90
20504;DHT22;10410;51.046;6.980;2023-10-31T19:56:30;12.00;99.90
20504;DHT22;10410;51.046;6.980;2023-10-31T20:03:31;12.00;99.90
20504;DHT22;10410;51.046;6.980;2023-10-31T20:10:31;12.00;99.90
20504;DHT22;10410;51.046;6.980;2023-10-31T20:17:32;12.00;99.90
20504;DHT22;10410;51.046;6.980;2023-10-31T20:24:34;12.00;99.90
20504;DHT22;10410;51.046;6.980;2023-10-31T20:31:35;12.00;99.90
20504;DHT22;10410;51.046;6.980;2023-10-31T20:38:35;12.10;99.90
20504;DHT22;10410;51.046;6.980;2023-10-31T20:45:36;12.10;99.90
20504;DHT22;10410;51.046;6.980;2023-10-31T20:52:38;12.10;99.90
20504;DHT22;10410;51.046;6.980;2023-10-31T20:59:42;12.20;99.90
20504;DHT22;10410;51.046;6.980;2023-10-31T21:06:44;12.20;99.90
20504;DHT22;10410;51.046;6.980;2023-10-31T21:13:45;12.20;99.90
20504;DHT22;10410;51.046;6.980;2023-10-31T21:20:45;12.20;99.90
20504;DHT22;10410;51.046;6.980;2023-10-31T21:27:47;12.30;99.90
20504;DHT22;10410;51.046;6.980;2023-10-31T21:34:49;12.30;99.90
20504;DHT22;10410;51.046;6.980;2023-10-31T21:41:49;12.30;99.90
20504;DHT22;10410;51.046;6.980;2023-10-31T21:48:49;12.30;99.90
20504;DHT22;10410;51.046;6.980;2023-10-31T21:55:50;12.30;99.90
20504;DHT22;10410;51.046;6.980;2023-10-31T22:02:50;12.30;99.90
20504;DHT22;10410;51.046;6.980;2023-10-31T22:09:51;12.30;99.90
20504;DHT22;10410;51.046;6.980;2023-10-31T22:16:52;12.30;99.90
20504;DHT22;10410;51.046;6.980;2023-10-31T22:23:52;12.30;99.90
20504;DHT22;10410;51.046;6.980;2023-10-31T22:30:53;12.30;99.90
20504;DHT22;10410;51.046;6.980;2023-10-31T22:37:53;12.30;99.90
20504;DHT22;10410;51.046;6.980;2023-10-31T22:44:54;12.30;99.90
20504;DHT22;10410;51.046;6.980;2023-10-31T22:51:54;12.30;99.90
20504;DHT22;10410;51.046;6.980;2023-10-31T22:58:55;12.30;99.90
20504;DHT22;10410;51.046;6.980;2023-10-31T23:05:56;12.30;99.90
20504;DHT22;10410;51.046;6.980;2023-10-31T23:12:57;12.30;99.90
20504;DHT22;10410;51.046;6.980;2023-10-31T23:19:57;12.40;99.90
20504;DHT22;10410;51.046;6.980;2023-10-31T23:26:58;12.40;99.90
20504;DHT22;10410;51.046;6.980;2023-10-31T23:33:58;12.40;99.90
20504;DHT22;10410;51.046;6.980;2023-10-31T23:40:59;12.30;99.90
20504;DHT22;10410;51.046;6.980;2023-10-31T23:47:59;12.30;99.90
20504;DHT22;10410;51.046;6.980;2023-10-31T23:55:00;12.30;99.90
